KGFL/GFL METAR and TAF weather

Enter ICAO airport designator
Station Type Date Time Source
KGFL METAR 2018/12/13 07:53 UTC NOAA

KGFL 130753Z AUTO 07004KT 10SM CLR M10/M13 A3037 RMK AO2 SLP295 T11001133


Station Type Date Time Source
KGFL Decoded METAR 2018/12/13 07:53 UTC NOAA

FLOYD BENNETT MEMORIAL AIRPORT , NY, United States (KGFL) 43-20N 073-37W 103M
Dec 13, 2018 - 02:53 AM EST / 2018.12.13 0753 UTC
Wind: from the ENE (070 degrees) at 5 MPH (4 KT):0
Visibility: 10 mile(s):0
Sky conditions: clear
Temperature: 14.0 F (-10.0 C)
Windchill: 6 F (-14 C):1
Dew Point: 8.1 F (-13.3 C)
Relative Humidity: 76%
Pressure (altimeter): 30.37 in. Hg (1028 hPa)
ob: KGFL 130753Z AUTO 07004KT 10SM CLR M10/M13 A3037 RMK AO2 SLP295 T11001133
cycle: 8

Station Type Date Time Source
KGFL TAF 2018/12/13 06:24 UTC NOAA

TAF KGFL 130521Z 1306/1406 06004KT P6SM FEW020 BKN250
FM131200 VRB03KT P6SM BKN040 OVC080
FM131600 14004KT P6SM VCSH BKN025 OVC035 PROB30 1317/1321 3SM -SN BR BKN015 OVC025
FM132200 VRB03KT P6SM SCT015 OVC025


Example: see airport list